sensor_id;sensor_type;location;lat;lon;timestamp;pressure;altitude;pressure_sealevel;temperature;humidity
71306;BME280;59097;46.858;18.632;2023-03-02T00:00:19;100970.34;;;2.63;96.52
71306;BME280;59097;46.858;18.632;2023-03-02T00:02:47;100978.00;;;2.01;98.16
71306;BME280;59097;46.858;18.632;2023-03-02T00:05:16;100892.09;;;1.52;97.76
71306;BME280;59097;46.858;18.632;2023-03-02T00:07:43;100959.44;;;1.92;97.88
71306;BME280;59097;46.858;18.632;2023-03-02T00:10:12;100976.53;;;2.08;97.40
71306;BME280;59097;46.858;18.632;2023-03-02T00:12:41;100971.44;;;2.06;97.02
71306;BME280;59097;46.858;18.632;2023-03-02T00:15:09;100975.97;;;2.04;96.56
71306;BME280;59097;46.858;18.632;2023-03-02T00:17:37;100970.75;;;2.04;96.15
71306;BME280;59097;46.858;18.632;2023-03-02T00:20:19;100947.69;;;1.87;95.94
71306;BME280;59097;46.858;18.632;2023-03-02T00:23:01;100957.44;;;1.96;94.95
71306;BME280;59097;46.858;18.632;2023-03-02T00:25:57;100956.81;;;2.04;93.50
71306;BME280;59097;46.858;18.632;2023-03-02T00:28:23;100950.62;;;2.05;91.42
71306;BME280;59097;46.858;18.632;2023-03-02T00:30:49;100951.69;;;2.02;90.73
71306;BME280;59097;46.858;18.632;2023-03-02T00:33:15;100951.69;;;2.02;88.46
71306;BME280;59097;46.858;18.632;2023-03-02T00:35:42;100941.97;;;2.04;85.44
71306;BME280;59097;46.858;18.632;2023-03-02T00:38:14;100948.50;;;2.52;82.88
71306;BME280;59097;46.858;18.632;2023-03-02T00:40:45;100948.50;;;2.52;82.88
71306;BME280;59097;46.858;18.632;2023-03-02T00:43:15;100948.41;;;1.89;84.60
71306;BME280;59097;46.858;18.632;2023-03-02T00:45:43;100945.66;;;1.79;85.19
71306;BME280;59097;46.858;18.632;2023-03-02T00:48:11;100937.25;;;1.65;85.68
71306;BME280;59097;46.858;18.632;2023-03-02T00:50:40;100931.31;;;1.63;86.10
71306;BME280;59097;46.858;18.632;2023-03-02T00:53:08;100921.44;;;1.55;86.08
71306;BME280;59097;46.858;18.632;2023-03-02T00:55:36;100932.37;;;1.49;86.90
71306;BME280;59097;46.858;18.632;2023-03-02T00:58:05;100936.44;;;1.53;86.39
71306;BME280;59097;46.858;18.632;2023-03-02T01:00:35;100938.87;;;1.44;86.99
71306;BME280;59097;46.858;18.632;2023-03-02T01:03:18;100932.84;;;1.32;86.88
71306;BME280;59097;46.858;18.632;2023-03-02T01:06:00;100934.88;;;1.40;86.79
71306;BME280;59097;46.858;18.632;2023-03-02T01:08:26;100923.94;;;1.35;86.03
71306;BME280;59097;46.858;18.632;2023-03-02T01:10:52;100932.00;;;1.32;86.43
71306;BME280;59097;46.858;18.632;2023-03-02T01:13:19;100924.28;;;1.30;86.25
71306;BME280;59097;46.858;18.632;2023-03-02T01:15:45;100889.72;;;1.04;86.06
71306;BME280;59097;46.858;18.632;2023-03-02T01:18:11;100920.81;;;1.18;86.93
71306;BME280;59097;46.858;18.632;2023-03-02T01:20:37;100914.03;;;1.16;86.52
71306;BME280;59097;46.858;18.632;2023-03-02T01:23:04;100919.16;;;1.06;87.23
71306;BME280;59097;46.858;18.632;2023-03-02T01:25:36;100915.69;;;1.06;87.58
71306;BME280;59097;46.858;18.632;2023-03-02T01:28:06;100902.50;;;0.96;86.96
71306;BME280;59097;46.858;18.632;2023-03-02T01:30:35;100912.72;;;0.99;86.86
71306;BME280;59097;46.858;18.632;2023-03-02T01:33:03;100904.31;;;1.07;85.33
71306;BME280;59097;46.858;18.632;2023-03-02T01:35:31;100897.41;;;1.06;85.59
71306;BME280;59097;46.858;18.632;2023-03-02T01:37:59;100902.75;;;1.04;85.22
71306;BME280;59097;46.858;18.632;2023-03-02T01:40:28;100903.84;;;1.02;85.44
71306;BME280;59097;46.858;18.632;2023-03-02T01:42:58;100879.84;;;0.97;83.95
71306;BME280;59097;46.858;18.632;2023-03-02T01:45:45;100900.97;;;0.94;83.77
71306;BME280;59097;46.858;18.632;2023-03-02T01:51:27;100901.31;;;0.89;83.82
71306;BME280;59097;46.858;18.632;2023-03-02T01:54:06;100910.09;;;0.88;83.71
71306;BME280;59097;46.858;18.632;2023-03-02T01:56:36;100911.72;;;0.78;84.48
71306;BME280;59097;46.858;18.632;2023-03-02T01:59:10;100908.63;;;0.73;84.85
71306;BME280;59097;46.858;18.632;2023-03-02T02:01:40;100895.75;;;0.59;84.85
71306;BME280;59097;46.858;18.632;2023-03-02T02:04:08;100910.59;;;0.58;83.65
71306;BME280;59097;46.858;18.632;2023-03-02T02:06:40;100874.37;;;0.43;84.87
71306;BME280;59097;46.858;18.632;2023-03-02T02:09:17;100894.47;;;1.33;82.13
71306;BME280;59097;46.858;18.632;2023-03-02T02:11:47;100894.47;;;1.33;82.13
71306;BME280;59097;46.858;18.632;2023-03-02T02:14:16;100907.25;;;0.56;83.46
71306;BME280;59097;46.858;18.632;2023-03-02T02:16:44;100886.94;;;0.49;84.07
71306;BME280;59097;46.858;18.632;2023-03-02T02:19:40;100874.47;;;0.41;81.49
71306;BME280;59097;46.858;18.632;2023-03-02T02:22:14;100894.94;;;0.58;81.13
71306;BME280;59097;46.858;18.632;2023-03-02T02:24:52;100894.47;;;0.64;81.88
71306;BME280;59097;46.858;18.632;2023-03-02T02:27:25;100864.44;;;0.59;78.56
71306;BME280;59097;46.858;18.632;2023-03-02T02:30:17;100871.19;;;0.61;79.15
71306;BME280;59097;46.858;18.632;2023-03-02T02:33:00;100899.16;;;0.83;78.77
71306;BME280;59097;46.858;18.632;2023-03-02T02:35:27;100885.63;;;0.78;78.16
71306;BME280;59097;46.858;18.632;2023-03-02T02:38:01;100865.88;;;0.63;77.66
71306;BME280;59097;46.858;18.632;2023-03-02T02:43:12;100884.50;;;0.70;76.93
71306;BME280;59097;46.858;18.632;2023-03-02T02:45:39;100874.44;;;0.65;78.18
71306;BME280;59097;46.858;18.632;2023-03-02T02:48:17;100868.94;;;1.47;74.47
71306;BME280;59097;46.858;18.632;2023-03-02T02:50:53;100868.94;;;1.47;74.47
71306;BME280;59097;46.858;18.632;2023-03-02T02:56:08;100882.28;;;0.76;76.95
71306;BME280;59097;46.858;18.632;2023-03-02T02:58:49;100871.63;;;0.79;76.41
71306;BME280;59097;46.858;18.632;2023-03-02T03:01:21;100869.94;;;0.78;75.21
71306;BME280;59097;46.858;18.632;2023-03-02T03:03:55;100867.81;;;0.83;75.35
71306;BME280;59097;46.858;18.632;2023-03-02T03:06:26;100866.06;;;0.84;76.10
71306;BME280;59097;46.858;18.632;2023-03-02T03:08:59;100865.00;;;0.86;76.32
71306;BME280;59097;46.858;18.632;2023-03-02T03:11:31;100865.69;;;0.88;76.51
71306;BME280;59097;46.858;18.632;2023-03-02T03:14:12;100859.53;;;0.89;74.39
71306;BME280;59097;46.858;18.632;2023-03-02T03:17:09;100856.66;;;0.92;74.97
71306;BME280;59097;46.858;18.632;2023-03-02T03:19:40;100858.00;;;0.98;73.61
71306;BME280;59097;46.858;18.632;2023-03-02T03:22:08;100858.97;;;0.97;72.73
71306;BME280;59097;46.858;18.632;2023-03-02T03:24:37;100865.25;;;0.94;71.46
71306;BME280;59097;46.858;18.632;2023-03-02T03:27:05;100867.50;;;0.99;71.19
71306;BME280;59097;46.858;18.632;2023-03-02T03:29:33;100869.25;;;0.87;71.81
71306;BME280;59097;46.858;18.632;2023-03-02T03:32:06;100868.81;;;1.49;71.39
71306;BME280;59097;46.858;18.632;2023-03-02T03:34:35;100868.81;;;1.49;71.39
71306;BME280;59097;46.858;18.632;2023-03-02T03:37:09;100871.84;;;0.87;71.89
71306;BME280;59097;46.858;18.632;2023-03-02T03:39:38;100870.19;;;0.75;72.63
71306;BME280;59097;46.858;18.632;2023-03-02T03:42:07;100842.97;;;0.55;72.64
71306;BME280;59097;46.858;18.632;2023-03-02T03:44:36;100857.56;;;0.58;72.54
71306;BME280;59097;46.858;18.632;2023-03-02T03:47:04;100873.97;;;0.71;71.35
71306;BME280;59097;46.858;18.632;2023-03-02T03:49:33;100875.13;;;0.67;72.02
71306;BME280;59097;46.858;18.632;2023-03-02T03:52:02;100875.75;;;0.71;71.52
71306;BME280;59097;46.858;18.632;2023-03-02T03:54:45;100879.41;;;0.68;70.98
71306;BME280;59097;46.858;18.632;2023-03-02T03:57:43;100870.34;;;0.50;72.22
71306;BME280;59097;46.858;18.632;2023-03-02T04:00:11;100864.88;;;0.42;72.05
71306;BME280;59097;46.858;18.632;2023-03-02T04:02:40;100877.13;;;0.52;72.77
71306;BME280;59097;46.858;18.632;2023-03-02T04:05:07;100881.53;;;0.63;71.96
71306;BME280;59097;46.858;18.632;2023-03-02T04:07:34;100887.78;;;0.49;72.75
71306;BME280;59097;46.858;18.632;2023-03-02T04:10:03;100892.66;;;0.54;73.33
71306;BME280;59097;46.858;18.632;2023-03-02T04:12:30;100885.38;;;0.46;71.62
71306;BME280;59097;46.858;18.632;2023-03-02T04:15:06;100887.22;;;1.14;70.42
71306;BME280;59097;46.858;18.632;2023-03-02T04:17:36;100887.22;;;1.14;70.42
71306;BME280;59097;46.858;18.632;2023-03-02T04:20:06;100892.97;;;0.38;72.90
71306;BME280;59097;46.858;18.632;2023-03-02T04:22:46;100880.09;;;0.24;73.67
71306;BME280;59097;46.858;18.632;2023-03-02T04:25:17;100893.34;;;0.45;72.13
71306;BME280;59097;46.858;18.632;2023-03-02T04:27:50;100870.78;;;0.33;71.80
71306;BME280;59097;46.858;18.632;2023-03-02T04:30:22;100893.97;;;0.48;70.65
71306;BME280;59097;46.858;18.632;2023-03-02T04:32:52;100895.09;;;0.44;70.57
71306;BME280;59097;46.858;18.632;2023-03-02T04:35:20;100895.31;;;0.41;71.36
71306;BME280;59097;46.858;18.632;2023-03-02T04:38:02;100890.16;;;0.52;70.33
71306;BME280;59097;46.858;18.632;2023-03-02T04:40:46;100888.75;;;0.59;68.96
71306;BME280;59097;46.858;18.632;2023-03-02T04:43:27;100905.06;;;0.74;68.26
71306;BME280;59097;46.858;18.632;2023-03-02T04:46:15;100902.03;;;0.56;68.32
71306;BME280;59097;46.858;18.632;2023-03-02T04:48:43;100895.72;;;0.48;70.25
71306;BME280;59097;46.858;18.632;2023-03-02T04:51:23;100905.19;;;0.49;69.96
71306;BME280;59097;46.858;18.632;2023-03-02T04:53:55;100898.75;;;0.66;68.76
71306;BME280;59097;46.858;18.632;2023-03-02T04:56:22;100895.75;;;0.59;69.64
71306;BME280;59097;46.858;18.632;2023-03-02T04:58:55;100892.56;;;1.35;67.19
71306;BME280;59097;46.858;18.632;2023-03-02T05:01:23;100892.56;;;1.35;67.19
71306;BME280;59097;46.858;18.632;2023-03-02T05:03:52;100850.03;;;0.42;68.73
71306;BME280;59097;46.858;18.632;2023-03-02T05:06:20;100884.09;;;0.52;68.86
71306;BME280;59097;46.858;18.632;2023-03-02T05:08:52;100905.94;;;0.51;69.07
71306;BME280;59097;46.858;18.632;2023-03-02T05:11:20;100899.69;;;0.64;67.25
71306;BME280;59097;46.858;18.632;2023-03-02T05:13:56;100902.38;;;0.52;67.89
71306;BME280;59097;46.858;18.632;2023-03-02T05:16:26;100899.41;;;0.56;68.26
71306;BME280;59097;46.858;18.632;2023-03-02T05:18:58;100899.03;;;0.50;68.76
71306;BME280;59097;46.858;18.632;2023-03-02T05:21:27;100894.75;;;0.49;68.58
71306;BME280;59097;46.858;18.632;2023-03-02T05:24:10;100881.72;;;0.49;68.20
71306;BME280;59097;46.858;18.632;2023-03-02T05:27:07;100886.75;;;0.63;67.45
71306;BME280;59097;46.858;18.632;2023-03-02T05:29:33;100888.34;;;0.77;65.92
71306;BME280;59097;46.858;18.632;2023-03-02T05:31:59;100882.53;;;0.73;66.42
71306;BME280;59097;46.858;18.632;2023-03-02T05:34:25;100853.09;;;0.71;65.02
71306;BME280;59097;46.858;18.632;2023-03-02T05:36:52;100880.31;;;0.91;64.95
71306;BME280;59097;46.858;18.632;2023-03-02T05:39:18;100883.25;;;0.86;65.73
71306;BME280;59097;46.858;18.632;2023-03-02T05:41:50;100890.91;;;1.56;63.96
71306;BME280;59097;46.858;18.632;2023-03-02T05:44:19;100890.91;;;1.56;63.96
71306;BME280;59097;46.858;18.632;2023-03-02T05:46:47;100896.69;;;0.93;65.84
71306;BME280;59097;46.858;18.632;2023-03-02T05:49:16;100891.81;;;0.88;66.17
71306;BME280;59097;46.858;18.632;2023-03-02T05:51:44;100896.91;;;0.90;65.76
71306;BME280;59097;46.858;18.632;2023-03-02T05:54:12;100905.00;;;0.98;65.68
71306;BME280;59097;46.858;18.632;2023-03-02T05:56:41;100898.59;;;1.02;64.38
71306;BME280;59097;46.858;18.632;2023-03-02T05:59:09;100911.56;;;1.14;63.65
71306;BME280;59097;46.858;18.632;2023-03-02T06:01:37;100911.56;;;1.14;65.01
71306;BME280;59097;46.858;18.632;2023-03-02T06:04:05;100918.31;;;1.28;62.75
71306;BME280;59097;46.858;18.632;2023-03-02T06:06:47;100915.97;;;1.25;63.65
71306;BME280;59097;46.858;18.632;2023-03-02T06:09:18;100921.31;;;1.35;63.23
71306;BME280;59097;46.858;18.632;2023-03-02T06:11:47;100913.12;;;1.39;63.84
71306;BME280;59097;46.858;18.632;2023-03-02T06:14:44;100921.06;;;1.49;65.43
71306;BME280;59097;46.858;18.632;2023-03-02T06:17:27;100916.09;;;1.57;62.50
71306;BME280;59097;46.858;18.632;2023-03-02T06:20:21;100894.47;;;1.66;61.82
71306;BME280;59097;46.858;18.632;2023-03-02T06:23:03;100917.97;;;1.88;62.19
71306;BME280;59097;46.858;18.632;2023-03-02T06:25:31;100922.59;;;2.07;59.51
71306;BME280;59097;46.858;18.632;2023-03-02T06:28:23;100927.06;;;2.16;60.33
71306;BME280;59097;46.858;18.632;2023-03-02T06:30:52;100913.38;;;2.23;60.61
71306;BME280;59097;46.858;18.632;2023-03-02T06:33:20;100836.91;;;1.77;60.35
71306;BME280;59097;46.858;18.632;2023-03-02T06:35:48;100934.84;;;2.38;60.81
71306;BME280;59097;46.858;18.632;2023-03-02T06:38:17;100935.22;;;2.33;60.60
71306;BME280;59097;46.858;18.632;2023-03-02T06:40:45;100931.50;;;2.47;61.49
71306;BME280;59097;46.858;18.632;2023-03-02T06:43:13;100937.31;;;2.50;62.41
71306;BME280;59097;46.858;18.632;2023-03-02T06:45:44;100932.28;;;2.59;61.69
71306;BME280;59097;46.858;18.632;2023-03-02T06:48:12;100916.81;;;2.55;60.78
71306;BME280;59097;46.858;18.632;2023-03-02T06:50:40;100915.47;;;2.61;60.71
71306;BME280;59097;46.858;18.632;2023-03-02T06:53:10;100914.34;;;2.75;59.42
71306;BME280;59097;46.858;18.632;2023-03-02T06:55:39;100930.91;;;2.96;60.31
71306;BME280;59097;46.858;18.632;2023-03-02T06:58:07;100937.09;;;2.95;58.67
71306;BME280;59097;46.858;18.632;2023-03-02T07:00:41;100935.28;;;3.06;58.51
71306;BME280;59097;46.858;18.632;2023-03-02T07:03:09;100929.06;;;3.07;57.25
71306;BME280;59097;46.858;18.632;2023-03-02T07:05:37;100938.69;;;3.58;57.69
71306;BME280;59097;46.858;18.632;2023-03-02T07:08:06;100941.31;;;3.58;57.28
71306;BME280;59097;46.858;18.632;2023-03-02T07:10:44;100940.78;;;4.04;54.30
71306;BME280;59097;46.858;18.632;2023-03-02T07:13:13;100920.22;;;3.59;56.96
71306;BME280;59097;46.858;18.632;2023-03-02T07:16:12;100936.50;;;3.63;57.27
71306;BME280;59097;46.858;18.632;2023-03-02T07:18:56;100928.66;;;3.63;56.90
71306;BME280;59097;46.858;18.632;2023-03-02T07:21:26;100930.94;;;4.36;56.12
71306;BME280;59097;46.858;18.632;2023-03-02T07:23:52;100935.59;;;4.32;53.47
71306;BME280;59097;46.858;18.632;2023-03-02T07:26:19;100941.31;;;3.88;54.10
71306;BME280;59097;46.858;18.632;2023-03-02T07:28:50;100922.28;;;3.96;55.29
71306;BME280;59097;46.858;18.632;2023-03-02T07:31:16;100924.91;;;3.96;55.24
71306;BME280;59097;46.858;18.632;2023-03-02T07:33:43;100947.28;;;4.00;55.57
71306;BME280;59097;46.858;18.632;2023-03-02T07:36:15;100939.63;;;4.65;55.06
71306;BME280;59097;46.858;18.632;2023-03-02T07:38:44;100939.63;;;4.65;55.06
71306;BME280;59097;46.858;18.632;2023-03-02T07:41:12;100942.47;;;4.05;56.36
71306;BME280;59097;46.858;18.632;2023-03-02T07:43:42;100947.19;;;4.11;57.48
71306;BME280;59097;46.858;18.632;2023-03-02T07:46:11;100938.50;;;4.20;57.74
71306;BME280;59097;46.858;18.632;2023-03-02T07:48:39;100916.47;;;4.02;56.87
71306;BME280;59097;46.858;18.632;2023-03-02T07:51:07;100940.59;;;4.26;57.29
71306;BME280;59097;46.858;18.632;2023-03-02T07:53:35;100938.66;;;4.28;57.26
71306;BME280;59097;46.858;18.632;2023-03-02T07:56:09;100929.97;;;4.56;57.99
71306;BME280;59097;46.858;18.632;2023-03-02T07:58:38;100933.13;;;4.50;57.16
71306;BME280;59097;46.858;18.632;2023-03-02T08:01:06;100933.97;;;4.60;56.45
71306;BME280;59097;46.858;18.632;2023-03-02T08:03:35;100932.44;;;4.96;57.61
71306;BME280;59097;46.858;18.632;2023-03-02T08:06:11;100941.94;;;5.26;55.22
71306;BME280;59097;46.858;18.632;2023-03-02T08:08:42;100933.09;;;5.17;56.65
71306;BME280;59097;46.858;18.632;2023-03-02T08:11:19;100934.63;;;5.10;56.29
71306;BME280;59097;46.858;18.632;2023-03-02T08:13:47;100931.75;;;4.94;55.31
71306;BME280;59097;46.858;18.632;2023-03-02T08:20:01;100925.63;;;5.13;55.18
71306;BME280;59097;46.858;18.632;2023-03-02T08:22:34;100931.81;;;5.31;56.73
71306;BME280;59097;46.858;18.632;2023-03-02T08:35:13;100923.88;;;5.50;56.54
71306;BME280;59097;46.858;18.632;2023-03-02T08:37:55;100916.81;;;5.87;56.32
71306;BME280;59097;46.858;18.632;2023-03-02T08:41:10;100924.66;;;5.97;56.40
71306;BME280;59097;46.858;18.632;2023-03-02T08:43:38;100899.28;;;6.05;56.06
71306;BME280;59097;46.858;18.632;2023-03-02T08:46:05;100904.22;;;6.26;57.04
71306;BME280;59097;46.858;18.632;2023-03-02T08:48:31;100843.75;;;5.71;56.57
71306;BME280;59097;46.858;18.632;2023-03-02T08:51:07;100906.81;;;6.36;56.09
71306;BME280;59097;46.858;18.632;2023-03-02T08:53:40;100904.66;;;6.49;55.76
71306;BME280;59097;46.858;18.632;2023-03-02T08:56:26;100891.59;;;7.68;53.06
71306;BME280;59097;46.858;18.632;2023-03-02T08:59:01;100898.84;;;9.53;48.04
71306;BME280;59097;46.858;18.632;2023-03-02T09:01:32;100906.41;;;10.02;47.43
71306;BME280;59097;46.858;18.632;2023-03-02T09:04:03;100871.22;;;9.55;46.95
71306;BME280;59097;46.858;18.632;2023-03-02T09:06:34;100895.19;;;10.77;44.69
71306;BME280;59097;46.858;18.632;2023-03-02T09:09:03;100896.59;;;11.54;43.72
71306;BME280;59097;46.858;18.632;2023-03-02T09:11:32;100884.81;;;10.90;45.36
71306;BME280;59097;46.858;18.632;2023-03-02T09:14:01;100895.03;;;9.63;48.06
71306;BME280;59097;46.858;18.632;2023-03-02T09:16:30;100859.78;;;10.69;46.41
71306;BME280;59097;46.858;18.632;2023-03-02T09:18:59;100895.13;;;11.51;44.54
71306;BME280;59097;46.858;18.632;2023-03-02T09:21:27;100831.34;;;11.66;43.46
71306;BME280;59097;46.858;18.632;2023-03-02T09:23:57;100898.81;;;11.79;45.64
71306;BME280;59097;46.858;18.632;2023-03-02T09:26:26;100889.44;;;11.98;44.78
71306;BME280;59097;46.858;18.632;2023-03-02T09:29:09;100879.81;;;12.54;43.87
71306;BME280;59097;46.858;18.632;2023-03-02T09:31:37;100882.56;;;10.79;46.31
71306;BME280;59097;46.858;18.632;2023-03-02T09:34:04;100889.09;;;11.86;45.60
71306;BME280;59097;46.858;18.632;2023-03-02T09:36:33;100880.78;;;11.75;45.57
71306;BME280;59097;46.858;18.632;2023-03-02T09:39:15;100885.53;;;11.65;46.73
71306;BME280;59097;46.858;18.632;2023-03-02T09:44:35;100882.59;;;11.60;48.12
71306;BME280;59097;46.858;18.632;2023-03-02T09:47:27;100878.31;;;10.92;49.39
71306;BME280;59097;46.858;18.632;2023-03-02T09:50:20;100874.22;;;10.44;50.66
71306;BME280;59097;46.858;18.632;2023-03-02T09:55:36;100873.91;;;9.39;55.99
71306;BME280;59097;46.858;18.632;2023-03-02T09:58:15;100878.59;;;9.05;58.79
71306;BME280;59097;46.858;18.632;2023-03-02T10:00:45;100877.47;;;8.91;58.73
71306;BME280;59097;46.858;18.632;2023-03-02T10:03:29;100872.00;;;8.93;59.32
71306;BME280;59097;46.858;18.632;2023-03-02T10:06:01;100877.47;;;8.67;60.50
71306;BME280;59097;46.858;18.632;2023-03-02T10:08:33;100864.91;;;8.93;59.91
71306;BME280;59097;46.858;18.632;2023-03-02T10:11:16;100877.28;;;9.01;60.57
71306;BME280;59097;46.858;18.632;2023-03-02T10:13:48;100866.41;;;8.39;61.90
71306;BME280;59097;46.858;18.632;2023-03-02T10:17:04;100878.97;;;8.53;62.16
71306;BME280;59097;46.858;18.632;2023-03-02T10:19:50;100875.34;;;8.62;62.33
71306;BME280;59097;46.858;18.632;2023-03-02T10:22:37;100868.53;;;9.08;62.57
71306;BME280;59097;46.858;18.632;2023-03-02T10:25:40;100861.22;;;9.10;61.62
71306;BME280;59097;46.858;18.632;2023-03-02T10:28:23;100865.84;;;9.32;60.58
71306;BME280;59097;46.858;18.632;2023-03-02T10:31:08;100871.47;;;9.13;62.94
71306;BME280;59097;46.858;18.632;2023-03-02T10:33:38;100874.31;;;8.96;62.92
71306;BME280;59097;46.858;18.632;2023-03-02T10:36:23;100875.28;;;9.11;63.54
71306;BME280;59097;46.858;18.632;2023-03-02T10:38:58;100874.63;;;9.25;63.89
71306;BME280;59097;46.858;18.632;2023-03-02T10:41:35;100867.63;;;9.40;64.81
71306;BME280;59097;46.858;18.632;2023-03-02T10:44:30;100856.66;;;8.88;65.49
71306;BME280;59097;46.858;18.632;2023-03-02T10:47:00;100864.50;;;9.28;66.43
71306;BME280;59097;46.858;18.632;2023-03-02T10:49:32;100865.84;;;9.24;64.48
71306;BME280;59097;46.858;18.632;2023-03-02T10:52:15;100860.03;;;9.29;65.75
71306;BME280;59097;46.858;18.632;2023-03-02T10:54:48;100855.41;;;9.70;64.59
71306;BME280;59097;46.858;18.632;2023-03-02T10:57:28;100854.25;;;9.72;64.34
71306;BME280;59097;46.858;18.632;2023-03-02T11:00:21;100845.41;;;9.88;64.41
71306;BME280;59097;46.858;18.632;2023-03-02T11:05:38;100847.66;;;9.68;64.53
71306;BME280;59097;46.858;18.632;2023-03-02T11:08:31;100847.91;;;9.81;62.90
71306;BME280;59097;46.858;18.632;2023-03-02T11:11:01;100834.50;;;10.14;63.01
71306;BME280;59097;46.858;18.632;2023-03-02T11:18:54;100832.16;;;9.57;64.69
71306;BME280;59097;46.858;18.632;2023-03-02T11:26:48;100834.72;;;10.04;65.42
71306;BME280;59097;46.858;18.632;2023-03-02T11:29:42;100840.19;;;10.02;65.35
71306;BME280;59097;46.858;18.632;2023-03-02T11:32:17;100824.63;;;9.99;66.23
71306;BME280;59097;46.858;18.632;2023-03-02T11:34:55;100830.41;;;10.03;65.25
71306;BME280;59097;46.858;18.632;2023-03-02T11:37:29;100830.78;;;9.61;66.98
71306;BME280;59097;46.858;18.632;2023-03-02T11:40:08;100826.28;;;10.00;66.46
71306;BME280;59097;46.858;18.632;2023-03-02T11:42:41;100830.97;;;9.90;66.97
71306;BME280;59097;46.858;18.632;2023-03-02T11:47:57;100819.19;;;10.24;66.11
71306;BME280;59097;46.858;18.632;2023-03-02T11:50:26;100821.78;;;10.09;67.08
71306;BME280;59097;46.858;18.632;2023-03-02T11:53:03;100823.06;;;9.52;65.84
71306;BME280;59097;46.858;18.632;2023-03-02T11:55:34;100823.09;;;10.05;65.91
71306;BME280;59097;46.858;18.632;2023-03-02T11:58:15;100815.31;;;10.34;64.17
71306;BME280;59097;46.858;18.632;2023-03-02T12:00:42;100819.31;;;9.99;65.48
71306;BME280;59097;46.858;18.632;2023-03-02T12:06:04;100814.59;;;9.87;65.37
71306;BME280;59097;46.858;18.632;2023-03-02T12:08:43;100813.00;;;9.78;66.29
71306;BME280;59097;46.858;18.632;2023-03-02T12:13:58;100811.94;;;9.56;68.10
71306;BME280;59097;46.858;18.632;2023-03-02T12:16:37;100806.87;;;9.77;66.82
71306;BME280;59097;46.858;18.632;2023-03-02T12:19:28;100804.94;;;10.25;65.62
71306;BME280;59097;46.858;18.632;2023-03-02T12:22:07;100789.84;;;10.48;64.52
71306;BME280;59097;46.858;18.632;2023-03-02T12:24:38;100795.56;;;10.37;66.14
71306;BME280;59097;46.858;18.632;2023-03-02T12:27:24;100789.81;;;10.70;64.39
71306;BME280;59097;46.858;18.632;2023-03-02T12:32:46;100790.31;;;10.06;64.92
71306;BME280;59097;46.858;18.632;2023-03-02T12:35:25;100786.78;;;9.91;65.94
71306;BME280;59097;46.858;18.632;2023-03-02T12:38:27;100782.97;;;10.16;65.38
71306;BME280;59097;46.858;18.632;2023-03-02T12:41:16;100783.69;;;10.02;65.09
71306;BME280;59097;46.858;18.632;2023-03-02T12:44:00;100787.66;;;10.51;63.59
71306;BME280;59097;46.858;18.632;2023-03-02T12:46:48;100777.66;;;10.39;63.82
71306;BME280;59097;46.858;18.632;2023-03-02T12:50:15;100773.25;;;10.31;64.30
71306;BME280;59097;46.858;18.632;2023-03-02T12:52:56;100764.00;;;10.64;62.85
71306;BME280;59097;46.858;18.632;2023-03-02T12:55:23;100773.06;;;10.33;63.39
71306;BME280;59097;46.858;18.632;2023-03-02T12:58:18;100771.81;;;10.43;64.25
71306;BME280;59097;46.858;18.632;2023-03-02T13:00:53;100771.56;;;10.53;64.02
71306;BME280;59097;46.858;18.632;2023-03-02T13:03:20;100767.09;;;10.68;63.08
71306;BME280;59097;46.858;18.632;2023-03-02T13:05:46;100772.13;;;10.63;63.56
71306;BME280;59097;46.858;18.632;2023-03-02T13:08:19;100772.41;;;10.68;63.79
71306;BME280;59097;46.858;18.632;2023-03-02T13:11:04;100765.19;;;10.62;63.45
71306;BME280;59097;46.858;18.632;2023-03-02T13:13:41;100733.00;;;10.80;63.34
71306;BME280;59097;46.858;18.632;2023-03-02T13:16:25;100733.00;;;10.80;63.34
71306;BME280;59097;46.858;18.632;2023-03-02T13:18:56;100757.88;;;10.27;67.01
71306;BME280;59097;46.858;18.632;2023-03-02T13:21:34;100754.19;;;10.13;66.25
71306;BME280;59097;46.858;18.632;2023-03-02T13:27:16;100753.78;;;9.71;68.09
71306;BME280;59097;46.858;18.632;2023-03-02T13:29:50;100746.06;;;9.84;69.74
71306;BME280;59097;46.858;18.632;2023-03-02T13:32:34;100744.72;;;9.65;68.96
71306;BME280;59097;46.858;18.632;2023-03-02T13:35:21;100735.31;;;9.85;70.73
71306;BME280;59097;46.858;18.632;2023-03-02T13:38:00;100732.41;;;9.49;70.58
71306;BME280;59097;46.858;18.632;2023-03-02T13:40:36;100735.16;;;9.56;71.19
71306;BME280;59097;46.858;18.632;2023-03-02T13:43:30;100734.59;;;9.91;70.43
71306;BME280;59097;46.858;18.632;2023-03-02T13:46:25;100733.50;;;9.86;70.52
71306;BME280;59097;46.858;18.632;2023-03-02T13:49:05;100725.88;;;9.60;70.77
71306;BME280;59097;46.858;18.632;2023-03-02T13:51:43;100727.75;;;9.74;70.47
71306;BME280;59097;46.858;18.632;2023-03-02T13:54:21;100724.19;;;9.67;71.64
71306;BME280;59097;46.858;18.632;2023-03-02T13:56:52;100720.94;;;9.57;71.91
71306;BME280;59097;46.858;18.632;2023-03-02T13:59:21;100651.50;;;8.94;71.55
71306;BME280;59097;46.858;18.632;2023-03-02T14:01:53;100722.34;;;9.45;71.92
71306;BME280;59097;46.858;18.632;2023-03-02T14:04:22;100716.56;;;9.41;71.77
71306;BME280;59097;46.858;18.632;2023-03-02T14:06:52;100720.38;;;9.39;72.00
71306;BME280;59097;46.858;18.632;2023-03-02T14:09:47;100712.72;;;9.13;72.96
71306;BME280;59097;46.858;18.632;2023-03-02T14:12:29;100721.84;;;9.11;73.58
71306;BME280;59097;46.858;18.632;2023-03-02T14:14:57;100713.38;;;9.46;73.58
71306;BME280;59097;46.858;18.632;2023-03-02T14:17:25;100710.31;;;9.34;74.07
71306;BME280;59097;46.858;18.632;2023-03-02T14:19:52;100710.88;;;9.22;74.18